Orlando Sanford International Airport
KSFB : now visible

Airfield :











YOU CAN JOIN US ON...

 
LOGIN :

Register | Disclaimer

   EN    FR    IT 

 









Legend :    VFR   Marginal VFR   IFR   Intensive IFR   Very Intensive IFR
Visi :
Ceiling :
>= 8 km
>= 3000ft
5 to 8 km
1000 to 3000 ft
1500m to 5 km
500 to 1000 ft
800 to 1500m
200 to 500 ft
< 800m
< 200 ft
Symbols :   Thunderstorms  Fog  Heavy snow  Heavy precipitations  Wind > 20 kt







- Airport Elevation : 55 ft
- IATA code : SFB


KSFB - Orlando Sanford International

CURRENT METAR :
  • 160153Z 00000KT 10SM CLR 26/23 A3009 RMK AO2 SLP188 T02610228

EXPIRED METARs :
  • 160053Z 09004KT 10SM CLR 27/23 A3007 RMK AO2 SLP180 T02670228
  • 152353Z 09008KT 10SM CLR 27/22 A3006 RMK AO2 SLP178 60000 T02720222 10317 20272 53002

TAF KSFB
Valid from the 16 at 00:00 until the 17 at 00:00 UTC


152346Z 1600/1624 10011KT P6SM FEW030 BKN250
FM160300 08003KT P6SM BKN250
FM161400 VRB05KT P6SM SCT025 BKN035
FM161800 10007KT P6SM VCTS SCT030CB BKN050
FM162300 12009KT P6SM FEW030 SCT060 BKN200
KZJX FIR / North America



MET'MAP, your aeronautical weather chart ! - Copyright ORBIFLY December 2007 - Disclaimer

ORBIFLY MET'MAP TEAM :

Programming & Development : Alexandra Zaïnal
Concept & Development : Baudouin d'Aumeries
Co-Development & Prog : Marc-Olivier Méhu
Technical & hardware support : Manuel Goepfert

Contact : metmap@orbifly.com




SOURCES & CREDITS :

   NOAA       Earth
Advisory